sensor_id;sensor_type;location;lat;lon;timestamp;pressure;altitude;pressure_sealevel;temperature;humidity
56414;BME280;42318;48.452;19.526;2022-10-30T00:01:53;98995.91;;;19.21;61.70
56414;BME280;42318;48.452;19.526;2022-10-30T00:09:24;99006.06;;;19.26;61.77
56414;BME280;42318;48.452;19.526;2022-10-30T00:16:55;99010.66;;;19.25;61.82
56414;BME280;42318;48.452;19.526;2022-10-30T00:24:25;99014.19;;;19.26;61.93
56414;BME280;42318;48.452;19.526;2022-10-30T00:31:56;99008.78;;;19.26;61.47
56414;BME280;42318;48.452;19.526;2022-10-30T00:39:27;99004.41;;;19.25;61.46
56414;BME280;42318;48.452;19.526;2022-10-30T00:46:59;98993.28;;;19.26;61.44
56414;BME280;42318;48.452;19.526;2022-10-30T00:54:34;98982.56;;;19.20;61.63
56414;BME280;42318;48.452;19.526;2022-10-30T01:02:05;98975.00;;;19.22;61.81
56414;BME280;42318;48.452;19.526;2022-10-30T01:09:37;98979.94;;;19.25;61.45
56414;BME280;42318;48.452;19.526;2022-10-30T01:40:13;98972.88;;;19.24;61.62
56414;BME280;42318;48.452;19.526;2022-10-30T01:56:29;98973.69;;;19.24;61.59
56414;BME280;42318;48.452;19.526;2022-10-30T02:04:03;98973.69;;;19.24;61.35
56414;BME280;42318;48.452;19.526;2022-10-30T02:11:34;98969.09;;;19.25;61.61
56414;BME280;42318;48.452;19.526;2022-10-30T02:19:06;98962.00;;;19.24;61.23
56414;BME280;42318;48.452;19.526;2022-10-30T02:26:37;98958.22;;;19.25;61.72
56414;BME280;42318;48.452;19.526;2022-10-30T02:34:08;98960.94;;;19.25;61.45
56414;BME280;42318;48.452;19.526;2022-10-30T02:41:39;98971.81;;;19.25;61.59
56414;BME280;42318;48.452;19.526;2022-10-30T02:49:09;98974.50;;;19.25;61.48
56414;BME280;42318;48.452;19.526;2022-10-30T02:56:40;98973.44;;;19.26;61.77
56414;BME280;42318;48.452;19.526;2022-10-30T03:04:11;98971.81;;;19.25;61.70
56414;BME280;42318;48.452;19.526;2022-10-30T03:11:41;98978.31;;;19.24;62.22
56414;BME280;42318;48.452;19.526;2022-10-30T03:19:13;98978.06;;;19.25;61.86
56414;BME280;42318;48.452;19.526;2022-10-30T03:26:46;98982.44;;;19.26;61.98
56414;BME280;42318;48.452;19.526;2022-10-30T03:34:17;98971.09;;;19.18;62.07
56414;BME280;42318;48.452;19.526;2022-10-30T03:41:47;98969.91;;;19.25;62.23
56414;BME280;42318;48.452;19.526;2022-10-30T03:49:18;98969.66;;;19.27;61.73
56414;BME280;42318;48.452;19.526;2022-10-30T03:56:49;98966.13;;;19.26;61.77
56414;BME280;42318;48.452;19.526;2022-10-30T04:04:19;98955.38;;;19.20;61.97
56414;BME280;42318;48.452;19.526;2022-10-30T04:11:50;98962.59;;;19.26;61.92
56414;BME280;42318;48.452;19.526;2022-10-30T04:19:21;98963.41;;;19.26;61.60
56414;BME280;42318;48.452;19.526;2022-10-30T04:26:51;98947.81;;;19.22;61.54
56414;BME280;42318;48.452;19.526;2022-10-30T04:34:22;98959.63;;;19.27;61.89
56414;BME280;42318;48.452;19.526;2022-10-30T04:41:53;98963.16;;;19.28;61.39
56414;BME280;42318;48.452;19.526;2022-10-30T04:49:23;98965.88;;;19.28;61.25
56414;BME280;42318;48.452;19.526;2022-10-30T04:56:54;98953.38;;;19.27;61.30
56414;BME280;42318;48.452;19.526;2022-10-30T05:04:24;98956.91;;;19.27;61.32
56414;BME280;42318;48.452;19.526;2022-10-30T05:11:55;98957.16;;;19.26;61.06
56414;BME280;42318;48.452;19.526;2022-10-30T05:19:26;98943.69;;;19.19;61.05
56414;BME280;42318;48.452;19.526;2022-10-30T05:26:56;98958.22;;;19.25;61.35
56414;BME280;42318;48.452;19.526;2022-10-30T05:34:27;98954.44;;;19.26;61.30
56414;BME280;42318;48.452;19.526;2022-10-30T05:41:58;98948.66;;;19.22;61.20
56414;BME280;42318;48.452;19.526;2022-10-30T05:49:28;98965.31;;;19.26;61.06
56414;BME280;42318;48.452;19.526;2022-10-30T05:56:59;98968.84;;;19.26;61.25
56414;BME280;42318;48.452;19.526;2022-10-30T06:04:30;98957.16;;;19.26;61.13
56414;BME280;42318;48.452;19.526;2022-10-30T06:12:01;98976.16;;;19.26;60.86
56414;BME280;42318;48.452;19.526;2022-10-30T06:19:32;98985.16;;;19.26;61.20
56414;BME280;42318;48.452;19.526;2022-10-30T06:27:02;98976.75;;;19.28;61.82
56414;BME280;42318;48.452;19.526;2022-10-30T06:34:34;98963.66;;;19.25;62.09
56414;BME280;42318;48.452;19.526;2022-10-30T06:42:06;98974.03;;;19.28;62.29
56414;BME280;42318;48.452;19.526;2022-10-30T06:49:37;98985.38;;;19.25;63.00
56414;BME280;42318;48.452;19.526;2022-10-30T06:57:08;98987.03;;;19.26;63.26
56414;BME280;42318;48.452;19.526;2022-10-30T07:04:39;98987.50;;;19.23;63.02
56414;BME280;42318;48.452;19.526;2022-10-30T07:12:10;98987.50;;;19.23;62.89
56414;BME280;42318;48.452;19.526;2022-10-30T07:19:40;98981.25;;;19.22;63.15
56414;BME280;42318;48.452;19.526;2022-10-30T07:27:11;98992.47;;;19.26;62.78
56414;BME280;42318;48.452;19.526;2022-10-30T07:34:42;98996.34;;;19.30;62.92
56414;BME280;42318;48.452;19.526;2022-10-30T07:42:13;98997.91;;;19.26;63.09
56414;BME280;42318;48.452;19.526;2022-10-30T07:49:43;99002.84;;;19.29;62.89
56414;BME280;42318;48.452;19.526;2022-10-30T07:57:14;99000.97;;;19.29;63.05
56414;BME280;42318;48.452;19.526;2022-10-30T08:04:45;98989.16;;;19.24;63.11
56414;BME280;42318;48.452;19.526;2022-10-30T08:12:15;98983.72;;;19.24;63.05
56414;BME280;42318;48.452;19.526;2022-10-30T08:19:46;98982.44;;;19.26;63.03
56414;BME280;42318;48.452;19.526;2022-10-30T08:27:17;98976.16;;;19.26;62.63
56414;BME280;42318;48.452;19.526;2022-10-30T08:34:48;98976.03;;;19.32;62.63
56414;BME280;42318;48.452;19.526;2022-10-30T08:42:18;98968.13;;;19.31;62.50
56414;BME280;42318;48.452;19.526;2022-10-30T08:49:49;98986.41;;;19.35;62.09
56414;BME280;42318;48.452;19.526;2022-10-30T08:57:20;98995.16;;;19.37;62.49
56414;BME280;42318;48.452;19.526;2022-10-30T09:04:51;98995.16;;;19.37;62.42
56414;BME280;42318;48.452;19.526;2022-10-30T09:12:21;98996.81;;;19.38;62.13
56414;BME280;42318;48.452;19.526;2022-10-30T09:19:52;98992.44;;;19.37;62.27
56414;BME280;42318;48.452;19.526;2022-10-30T09:27:23;98996.81;;;19.38;62.61
56414;BME280;42318;48.452;19.526;2022-10-30T09:34:54;98994.00;;;19.33;62.56
56414;BME280;42318;48.452;19.526;2022-10-30T10:05:25;98977.97;;;19.72;62.17
56414;BME280;42318;48.452;19.526;2022-10-30T10:12:58;98968.94;;;19.83;61.35
56414;BME280;42318;48.452;19.526;2022-10-30T10:20:32;98964.50;;;19.94;61.09
56414;BME280;42318;48.452;19.526;2022-10-30T10:51:32;98941.09;;;20.21;60.09
56414;BME280;42318;48.452;19.526;2022-10-30T10:59:13;98944.97;;;20.25;59.83
56414;BME280;42318;48.452;19.526;2022-10-30T11:06:49;98935.97;;;20.25;59.49
56414;BME280;42318;48.452;19.526;2022-10-30T11:14:24;98939.34;;;20.32;59.55
56414;BME280;42318;48.452;19.526;2022-10-30T11:21:57;98934.50;;;20.34;59.73
56414;BME280;42318;48.452;19.526;2022-10-30T11:29:28;98931.28;;;20.37;59.46
56414;BME280;42318;48.452;19.526;2022-10-30T11:36:59;98931.28;;;20.37;59.53
56414;BME280;42318;48.452;19.526;2022-10-30T11:44:42;98907.16;;;20.41;59.16
56414;BME280;42318;48.452;19.526;2022-10-30T11:52:16;98899.31;;;20.44;59.08
56414;BME280;42318;48.452;19.526;2022-10-30T11:59:49;98906.16;;;20.47;58.92
56414;BME280;42318;48.452;19.526;2022-10-30T12:07:31;98908.97;;;20.52;58.93
56414;BME280;42318;48.452;19.526;2022-10-30T12:22:45;98911.19;;;20.55;58.88
56414;BME280;42318;48.452;19.526;2022-10-30T12:30:19;98908.47;;;20.55;59.06
56414;BME280;42318;48.452;19.526;2022-10-30T12:37:52;98905.50;;;20.56;58.97
56414;BME280;42318;48.452;19.526;2022-10-30T12:45:33;98902.28;;;20.59;59.01
56414;BME280;42318;48.452;19.526;2022-10-30T13:01:00;98895.50;;;20.62;59.65
56414;BME280;42318;48.452;19.526;2022-10-30T13:16:49;98906.22;;;20.68;59.73
56414;BME280;42318;48.452;19.526;2022-10-30T13:24:45;98907.53;;;20.66;59.55
56414;BME280;42318;48.452;19.526;2022-10-30T13:55:40;98907.31;;;20.51;60.36
56414;BME280;42318;48.452;19.526;2022-10-30T14:11:05;98900.91;;;20.40;60.75
56414;BME280;42318;48.452;19.526;2022-10-30T14:19:00;98906.94;;;20.30;61.00
56414;BME280;42318;48.452;19.526;2022-10-30T14:26:31;98901.09;;;20.22;60.92
56414;BME280;42318;48.452;19.526;2022-10-30T14:34:02;98914.13;;;20.20;61.14
56414;BME280;42318;48.452;19.526;2022-10-30T14:57:22;98906.53;;;20.05;61.79
56414;BME280;42318;48.452;19.526;2022-10-30T15:12:59;98894.63;;;19.94;62.25
56414;BME280;42318;48.452;19.526;2022-10-30T15:20:30;98887.22;;;19.90;62.15
56414;BME280;42318;48.452;19.526;2022-10-30T15:28:02;98893.13;;;19.87;62.45
56414;BME280;42318;48.452;19.526;2022-10-30T15:35:33;98893.63;;;19.84;62.47
56414;BME280;42318;48.452;19.526;2022-10-30T15:43:07;98903.94;;;19.82;63.03
56414;BME280;42318;48.452;19.526;2022-10-30T15:50:43;98893.53;;;19.79;63.10
56414;BME280;42318;48.452;19.526;2022-10-30T15:58:17;98897.31;;;19.77;63.24
56414;BME280;42318;48.452;19.526;2022-10-30T16:05:50;98908.03;;;19.84;63.53
56414;BME280;42318;48.452;19.526;2022-10-30T16:13:27;98901.28;;;19.87;63.30
56414;BME280;42318;48.452;19.526;2022-10-30T16:21:06;98905.41;;;19.89;62.86
56414;BME280;42318;48.452;19.526;2022-10-30T16:28:37;98902.56;;;19.96;62.49
56414;BME280;42318;48.452;19.526;2022-10-30T16:36:10;98900.19;;;19.99;62.38
56414;BME280;42318;48.452;19.526;2022-10-30T16:44:12;98890.13;;;20.00;62.23
56414;BME280;42318;48.452;19.526;2022-10-30T16:51:44;98906.53;;;20.05;61.91
56414;BME280;42318;48.452;19.526;2022-10-30T16:59:31;98900.59;;;20.08;62.00
56414;BME280;42318;48.452;19.526;2022-10-30T17:07:20;98909.09;;;20.12;62.13
56414;BME280;42318;48.452;19.526;2022-10-30T17:22:30;98916.75;;;20.15;62.02
56414;BME280;42318;48.452;19.526;2022-10-30T17:30:01;98920.31;;;20.15;62.05
56414;BME280;42318;48.452;19.526;2022-10-30T17:37:32;98909.41;;;20.15;62.24
56414;BME280;42318;48.452;19.526;2022-10-30T17:45:08;98917.09;;;20.18;61.82
56414;BME280;42318;48.452;19.526;2022-10-30T17:52:42;98930.69;;;20.18;61.95
56414;BME280;42318;48.452;19.526;2022-10-30T18:00:13;98927.41;;;20.16;61.72
56414;BME280;42318;48.452;19.526;2022-10-30T18:07:44;98942.97;;;20.21;61.52
56414;BME280;42318;48.452;19.526;2022-10-30T18:15:33;98943.81;;;20.21;61.52
56414;BME280;42318;48.452;19.526;2022-10-30T18:23:37;98934.00;;;20.20;61.66
56414;BME280;42318;48.452;19.526;2022-10-30T18:31:10;98932.34;;;20.19;61.63
56414;BME280;42318;48.452;19.526;2022-10-30T18:38:42;98930.94;;;20.17;61.91
56414;BME280;42318;48.452;19.526;2022-10-30T18:46:14;98939.44;;;20.20;61.65
56414;BME280;42318;48.452;19.526;2022-10-30T18:53:45;98931.84;;;20.22;61.40
56414;BME280;42318;48.452;19.526;2022-10-30T19:01:22;98935.63;;;20.21;61.12
56414;BME280;42318;48.452;19.526;2022-10-30T19:08:53;98921.72;;;20.18;61.19
56414;BME280;42318;48.452;19.526;2022-10-30T19:16:24;98917.81;;;20.14;60.90
56414;BME280;42318;48.452;19.526;2022-10-30T19:23:55;98915.94;;;20.14;61.30
56414;BME280;42318;48.452;19.526;2022-10-30T19:31:30;98912.47;;;20.02;61.54
56414;BME280;42318;48.452;19.526;2022-10-30T19:39:12;98922.03;;;20.04;61.80
56414;BME280;42318;48.452;19.526;2022-10-30T19:46:46;98925.09;;;20.08;62.14
56414;BME280;42318;48.452;19.526;2022-10-30T19:54:17;98924.09;;;20.14;61.99
56414;BME280;42318;48.452;19.526;2022-10-30T20:01:47;98929.88;;;20.18;61.66
56414;BME280;42318;48.452;19.526;2022-10-30T20:09:18;98920.97;;;20.22;61.77
56414;BME280;42318;48.452;19.526;2022-10-30T20:16:49;98917.91;;;20.19;61.67
56414;BME280;42318;48.452;19.526;2022-10-30T20:24:21;98920.88;;;20.17;61.62
56414;BME280;42318;48.452;19.526;2022-10-30T20:31:51;98927.31;;;20.11;61.54
56414;BME280;42318;48.452;19.526;2022-10-30T20:39:22;98924.75;;;20.04;61.83
56414;BME280;42318;48.452;19.526;2022-10-30T20:46:53;98923.59;;;20.00;61.64
56414;BME280;42318;48.452;19.526;2022-10-30T20:54:24;98927.06;;;19.96;61.61
56414;BME280;42318;48.452;19.526;2022-10-30T21:01:55;98930.22;;;19.93;61.74
56414;BME280;42318;48.452;19.526;2022-10-30T21:09:25;98927.75;;;19.91;61.98
56414;BME280;42318;48.452;19.526;2022-10-30T21:16:56;98936.16;;;19.90;61.82
56414;BME280;42318;48.452;19.526;2022-10-30T21:24:27;98940.19;;;19.87;61.77
56414;BME280;42318;48.452;19.526;2022-10-30T21:31:57;98942.09;;;19.87;62.03
56414;BME280;42318;48.452;19.526;2022-10-30T21:39:28;98915.44;;;19.72;62.25
56414;BME280;42318;48.452;19.526;2022-10-30T21:46:59;98912.81;;;19.77;61.97
56414;BME280;42318;48.452;19.526;2022-10-30T21:54:29;98912.00;;;19.76;62.06
56414;BME280;42318;48.452;19.526;2022-10-30T22:02:00;98903.84;;;19.76;61.99
56414;BME280;42318;48.452;19.526;2022-10-30T22:09:31;98900.53;;;19.74;62.64
56414;BME280;42318;48.452;19.526;2022-10-30T22:17:02;98896.91;;;19.69;62.65
56414;BME280;42318;48.452;19.526;2022-10-30T22:24:32;98894.53;;;19.72;62.50
56414;BME280;42318;48.452;19.526;2022-10-30T22:32:03;98896.66;;;19.70;62.27
56414;BME280;42318;48.452;19.526;2022-10-30T22:39:34;98899.63;;;19.69;62.52
56414;BME280;42318;48.452;19.526;2022-10-30T22:47:05;98901.28;;;19.70;62.67
56414;BME280;42318;48.452;19.526;2022-10-30T22:54:36;98905.63;;;19.71;62.70
56414;BME280;42318;48.452;19.526;2022-10-30T23:02:07;98901.03;;;19.71;62.47
56414;BME280;42318;48.452;19.526;2022-10-30T23:09:37;98906.47;;;19.71;62.87
56414;BME280;42318;48.452;19.526;2022-10-30T23:17:08;98905.22;;;19.62;62.36
56414;BME280;42318;48.452;19.526;2022-10-30T23:24:39;98914.28;;;19.68;62.25
56414;BME280;42318;48.452;19.526;2022-10-30T23:32:09;98904.13;;;19.63;62.30
56414;BME280;42318;48.452;19.526;2022-10-30T23:39:40;98914.28;;;19.68;62.36
56414;BME280;42318;48.452;19.526;2022-10-30T23:47:11;98911.56;;;19.68;62.54
56414;BME280;42318;48.452;19.526;2022-10-30T23:54:42;98908.25;;;19.66;62.21
